createdAt,value
2023-05-17T00:00:29.325Z,100253.28
2023-05-17T00:02:56.050Z,100263.75
2023-05-17T00:05:22.866Z,100261.81
2023-05-17T00:07:49.698Z,100264.78
2023-05-17T00:10:17.053Z,100258.66
2023-05-17T00:12:43.588Z,100264.06
2023-05-17T00:15:10.593Z,100254.13
2023-05-17T00:17:38.129Z,100256.63
2023-05-17T00:20:05.945Z,100258.59
2023-05-17T00:22:32.626Z,100246.44
2023-05-17T00:24:59.290Z,100252.31
2023-05-17T00:27:25.888Z,100239.00
2023-05-17T00:29:52.466Z,100246.13
2023-05-17T00:32:19.072Z,100242.78
2023-05-17T00:34:45.724Z,100246.09
2023-05-17T00:37:12.376Z,100236.66
2023-05-17T00:39:38.936Z,100237.41
2023-05-17T00:42:06.244Z,100235.44
2023-05-17T00:44:32.837Z,100240.44
2023-05-17T00:47:00.068Z,100230.09
2023-05-17T00:49:27.278Z,100235.09
2023-05-17T00:51:54.465Z,100235.97
2023-05-17T00:54:22.270Z,100230.19
2023-05-17T00:56:49.694Z,100238.28
2023-05-17T00:59:17.891Z,100238.22
2023-05-17T01:01:45.246Z,100238.97
2023-05-17T01:04:12.124Z,100234.66
2023-05-17T01:06:39.107Z,100230.22
2023-05-17T01:09:07.462Z,100232.69
2023-05-17T01:11:39.988Z,100235.94
2023-05-17T01:14:16.151Z,100234.09
2023-05-17T01:16:53.433Z,100240.66
2023-05-17T01:19:34.908Z,100239.84
2023-05-17T01:22:20.962Z,100230.38
2023-05-17T01:25:07.766Z,100232.66
2023-05-17T01:27:36.743Z,100232.03
2023-05-17T01:30:03.687Z,100232.38
2023-05-17T01:32:33.293Z,100227.66
2023-05-17T01:35:00.020Z,100228.22
2023-05-17T01:37:26.678Z,100230.97
2023-05-17T01:39:53.307Z,100228.97
2023-05-17T01:42:48.716Z,100230.34
2023-05-17T01:45:24.756Z,100232.88
2023-05-17T01:48:06.626Z,100235.88
2023-05-17T01:50:36.446Z,100232.81
2023-05-17T01:53:07.725Z,100233.63
2023-05-17T01:55:49.230Z,100227.41
2023-05-17T01:58:16.212Z,100230.06
2023-05-17T02:00:46.527Z,100223.31
2023-05-17T02:03:17.763Z,100223.63
2023-05-17T02:05:44.506Z,100225.16
2023-05-17T02:08:11.372Z,100224.34
2023-05-17T02:10:38.198Z,100230.19
2023-05-17T02:13:05.651Z,100222.34
2023-05-17T02:15:33.051Z,100230.56
2023-05-17T02:17:59.943Z,100231.13
2023-05-17T02:20:26.670Z,100234.16
2023-05-17T02:22:53.978Z,100224.53
2023-05-17T02:25:21.091Z,100221.66
2023-05-17T02:27:47.656Z,100225.72
2023-05-17T02:30:18.133Z,100229.44
2023-05-17T02:32:44.950Z,100223.47
2023-05-17T02:35:11.806Z,100226.78
2023-05-17T02:37:38.387Z,100237.91
2023-05-17T02:40:09.627Z,100230.22
2023-05-17T02:42:37.049Z,100225.66
2023-05-17T02:45:04.420Z,100225.56
2023-05-17T02:47:31.297Z,100222.28
2023-05-17T02:49:57.982Z,100230.00
2023-05-17T02:52:24.556Z,100230.84
2023-05-17T02:54:51.738Z,100231.94
2023-05-17T02:57:18.396Z,100233.97
2023-05-17T02:59:44.991Z,100240.47
2023-05-17T03:02:11.607Z,100236.94
2023-05-17T03:04:38.350Z,100242.72
2023-05-17T03:07:07.125Z,100238.09
2023-05-17T03:09:34.222Z,100237.38
2023-05-17T03:12:01.116Z,100234.78
2023-05-17T03:14:27.725Z,100228.44
2023-05-17T03:16:54.334Z,100233.56
2023-05-17T03:19:21.045Z,100225.63
2023-05-17T03:21:47.631Z,100228.88
2023-05-17T03:24:14.240Z,100225.44
2023-05-17T03:26:40.822Z,100225.56
2023-05-17T03:29:07.565Z,100226.50
2023-05-17T03:31:34.283Z,100225.63
2023-05-17T03:34:00.900Z,100225.56
2023-05-17T03:36:27.501Z,100221.84
2023-05-17T03:38:54.127Z,100219.53
2023-05-17T03:41:20.927Z,100223.81
2023-05-17T03:43:47.467Z,100225.53
2023-05-17T03:46:14.650Z,100222.94
2023-05-17T03:48:41.459Z,100227.94
2023-05-17T03:51:08.090Z,100228.78
2023-05-17T03:53:35.485Z,100226.00
2023-05-17T03:56:02.040Z,100230.88
2023-05-17T03:58:28.655Z,100237.13
2023-05-17T04:00:55.202Z,100232.44
2023-05-17T04:03:21.755Z,100230.38
2023-05-17T04:05:48.343Z,100232.31
2023-05-17T04:08:14.956Z,100227.56
2023-05-17T04:10:42.313Z,100227.31
2023-05-17T04:13:09.685Z,100235.94
2023-05-17T04:15:36.553Z,100232.38
2023-05-17T04:18:03.246Z,100228.94
2023-05-17T04:20:29.943Z,100229.59
2023-05-17T04:22:56.550Z,100233.84
2023-05-17T04:25:24.112Z,100221.03
2023-05-17T04:27:50.887Z,100234.72
2023-05-17T04:30:17.758Z,100227.66
2023-05-17T04:32:44.357Z,100230.28
2023-05-17T04:35:10.948Z,100223.34
2023-05-17T04:37:39.847Z,100231.44
2023-05-17T04:40:07.990Z,100229.78
2023-05-17T04:42:35.004Z,100228.44
2023-05-17T04:45:01.964Z,100235.44
2023-05-17T04:47:28.573Z,100239.38
2023-05-17T04:49:56.297Z,100239.28
2023-05-17T04:52:22.886Z,100240.88
2023-05-17T04:54:50.261Z,100244.19
2023-05-17T04:57:16.956Z,100255.28
2023-05-17T04:59:43.523Z,100254.34
2023-05-17T05:02:10.693Z,100260.88
2023-05-17T05:04:37.360Z,100253.22
2023-05-17T05:07:05.707Z,100258.44
2023-05-17T05:09:32.857Z,100256.28
2023-05-17T05:11:59.491Z,100255.56
2023-05-17T05:14:26.057Z,100258.06
2023-05-17T05:16:52.648Z,100263.94
2023-05-17T05:19:19.498Z,100270.78
2023-05-17T05:21:46.632Z,100275.69
2023-05-17T05:24:13.300Z,100270.75
2023-05-17T05:26:39.911Z,100274.28
2023-05-17T05:29:06.525Z,100274.25
2023-05-17T05:31:33.089Z,100278.25
2023-05-17T05:33:59.777Z,100279.84
2023-05-17T05:36:26.438Z,100273.03
2023-05-17T05:38:54.575Z,100273.75
2023-05-17T05:41:21.206Z,100272.25
2023-05-17T05:43:47.805Z,100280.59
2023-05-17T05:46:14.415Z,100279.53
2023-05-17T05:48:42.137Z,100281.47
2023-05-17T05:51:09.239Z,100279.22
2023-05-17T05:53:36.082Z,100281.75
2023-05-17T05:56:03.288Z,100280.25
2023-05-17T05:58:30.418Z,100274.41
2023-05-17T06:00:57.487Z,100283.38
2023-05-17T06:03:24.546Z,100277.91
2023-05-17T06:05:51.396Z,100278.84
2023-05-17T06:08:18.077Z,100290.94
2023-05-17T06:10:45.919Z,100286.41
2023-05-17T06:13:12.617Z,100289.19
2023-05-17T06:15:40.857Z,100295.06
2023-05-17T06:18:08.416Z,100295.44
2023-05-17T06:20:35.160Z,100284.47
2023-05-17T06:23:02.119Z,100289.88
2023-05-17T06:25:28.801Z,100287.69
2023-05-17T06:27:55.371Z,100289.75
2023-05-17T06:30:22.548Z,100302.44
2023-05-17T06:32:49.145Z,100290.84
2023-05-17T06:35:15.739Z,100300.31
2023-05-17T06:37:42.425Z,100305.84
2023-05-17T06:40:16.561Z,100302.88
2023-05-17T06:42:43.552Z,100304.72
2023-05-17T06:45:10.981Z,100303.94
2023-05-17T06:47:37.824Z,100302.31
2023-05-17T06:50:05.483Z,100307.59
2023-05-17T06:52:32.054Z,100307.41
2023-05-17T06:54:58.629Z,100302.53
2023-05-17T06:57:25.196Z,100299.91
2023-05-17T06:59:52.368Z,100310.31
2023-05-17T07:02:19.678Z,100305.31
2023-05-17T07:04:46.292Z,100308.16
2023-05-17T07:07:12.961Z,100306.53
2023-05-17T07:09:40.170Z,100313.84
2023-05-17T07:12:07.291Z,100316.94
2023-05-17T07:14:33.995Z,100305.09
2023-05-17T07:17:00.784Z,100299.44
2023-05-17T07:19:27.818Z,100303.72
2023-05-17T07:21:54.526Z,100307.53
2023-05-17T07:24:21.125Z,100299.31
2023-05-17T07:26:48.181Z,100307.75
2023-05-17T07:29:16.049Z,100298.69
2023-05-17T07:31:43.056Z,100297.66
2023-05-17T07:34:09.759Z,100299.75
2023-05-17T07:36:36.607Z,100304.81
2023-05-17T07:39:05.335Z,100307.22
2023-05-17T07:41:32.784Z,100300.34
2023-05-17T07:43:59.385Z,100299.31
2023-05-17T07:46:26.181Z,100286.53
2023-05-17T07:48:58.130Z,100291.81
2023-05-17T07:51:25.313Z,100307.44
2023-05-17T07:53:51.880Z,100303.03
2023-05-17T07:56:18.434Z,100297.31
2023-05-17T07:58:45.052Z,100312.41
2023-05-17T08:01:11.683Z,100311.34
2023-05-17T08:03:38.763Z,100300.78
2023-05-17T08:06:05.684Z,100297.03
2023-05-17T08:08:34.378Z,100300.91
2023-05-17T08:11:02.970Z,100294.66
2023-05-17T08:13:29.600Z,100293.13
2023-05-17T08:16:05.131Z,100287.63
2023-05-17T08:18:39.728Z,100284.69
2023-05-17T08:21:06.521Z,100281.59
2023-05-17T08:23:33.200Z,100279.03
2023-05-17T08:25:59.817Z,100281.09
2023-05-17T08:28:26.452Z,100285.47
2023-05-17T08:30:53.045Z,100284.31
2023-05-17T08:33:22.514Z,100280.78
2023-05-17T08:35:49.863Z,100280.97
2023-05-17T08:38:19.217Z,100281.03
2023-05-17T08:40:55.144Z,100280.78
2023-05-17T08:43:23.112Z,100271.34
2023-05-17T08:45:51.992Z,100261.72
2023-05-17T08:48:22.234Z,100265.72
2023-05-17T08:50:51.060Z,100261.56
2023-05-17T08:53:18.565Z,100253.66
2023-05-17T08:55:49.792Z,100254.91
2023-05-17T08:58:20.660Z,100265.72
2023-05-17T09:00:49.963Z,100260.94
2023-05-17T09:03:19.464Z,100247.09
2023-05-17T09:05:46.704Z,100266.00
2023-05-17T09:08:14.224Z,100260.56
2023-05-17T09:10:41.857Z,100259.06
2023-05-17T09:13:12.585Z,100247.16
2023-05-17T09:15:42.841Z,100251.13
2023-05-17T09:18:15.256Z,100248.38
2023-05-17T09:20:50.634Z,100243.91
2023-05-17T09:23:21.056Z,100246.16
2023-05-17T09:25:49.499Z,100241.75
2023-05-17T09:28:22.481Z,100230.47
2023-05-17T09:30:49.951Z,100228.22
2023-05-17T09:33:18.681Z,100224.63
2023-05-17T09:35:45.711Z,100220.19
2023-05-17T09:38:13.955Z,100220.94
2023-05-17T09:40:41.862Z,100235.94
2023-05-17T09:43:09.385Z,100240.16
2023-05-17T09:45:36.650Z,100234.41
2023-05-17T09:48:19.573Z,100236.28
2023-05-17T09:50:51.197Z,100231.47
2023-05-17T09:53:31.858Z,100221.38
2023-05-17T09:56:00.754Z,100238.47
2023-05-17T09:58:31.780Z,100225.88
2023-05-17T10:01:04.074Z,100222.66
2023-05-17T10:03:33.484Z,100223.34
2023-05-17T10:06:05.381Z,100233.13
2023-05-17T10:08:33.550Z,100234.03
2023-05-17T10:11:05.727Z,100226.88
2023-05-17T10:13:36.569Z,100231.41
2023-05-17T10:16:03.562Z,100224.19
2023-05-17T10:18:31.995Z,100217.78
2023-05-17T10:20:58.774Z,100227.88
2023-05-17T10:23:27.187Z,100221.47
2023-05-17T10:25:54.000Z,100220.81
2023-05-17T10:28:21.916Z,100215.38
2023-05-17T10:30:51.692Z,100207.41
2023-05-17T10:33:19.345Z,100207.41
2023-05-17T10:35:47.610Z,100203.34
2023-05-17T10:38:14.309Z,100208.66
2023-05-17T10:40:43.835Z,100206.03
2023-05-17T10:43:11.699Z,100207.78
2023-05-17T10:45:38.451Z,100196.91
2023-05-17T10:48:06.672Z,100210.25
2023-05-17T10:50:33.866Z,100211.00
2023-05-17T10:53:00.549Z,100201.41
2023-05-17T10:55:43.288Z,100196.28
2023-05-17T10:58:19.656Z,100189.44
2023-05-17T11:00:49.680Z,100184.19
2023-05-17T11:03:21.037Z,100179.25
2023-05-17T11:06:23.615Z,100191.75
2023-05-17T11:09:18.808Z,100172.66
2023-05-17T11:12:05.487Z,100173.72
2023-05-17T11:14:53.697Z,100175.88
2023-05-17T11:17:28.271Z,100169.09
2023-05-17T11:19:57.781Z,100170.09
2023-05-17T11:22:26.750Z,100158.91
2023-05-17T11:24:56.817Z,100170.94
2023-05-17T11:27:27.575Z,100165.56
2023-05-17T11:29:58.909Z,100167.69
2023-05-17T11:32:29.541Z,100162.59
2023-05-17T11:35:00.065Z,100156.16
2023-05-17T11:37:31.204Z,100156.28
2023-05-17T11:40:08.512Z,100157.50
2023-05-17T11:42:38.453Z,100133.34
2023-05-17T11:45:06.335Z,100143.72
2023-05-17T11:47:33.296Z,100155.72
2023-05-17T11:50:03.966Z,100138.66
2023-05-17T11:52:31.907Z,100147.50
2023-05-17T11:54:59.136Z,100144.19
2023-05-17T11:57:32.588Z,100125.84
2023-05-17T12:00:00.974Z,100149.25
2023-05-17T12:02:32.028Z,100142.53
2023-05-17T12:04:59.389Z,100131.31
2023-05-17T12:07:26.438Z,100127.94
2023-05-17T12:09:53.323Z,100121.28
2023-05-17T12:12:22.014Z,100114.34
2023-05-17T12:14:50.804Z,100123.59
2023-05-17T12:17:29.214Z,100121.03
2023-05-17T12:19:56.072Z,100107.16
2023-05-17T12:22:23.204Z,100118.00
2023-05-17T12:24:49.924Z,100116.66
2023-05-17T12:27:26.074Z,100120.66
2023-05-17T12:29:54.221Z,100112.41
2023-05-17T12:32:21.380Z,100123.47
2023-05-17T12:34:49.353Z,100110.72
2023-05-17T12:37:16.289Z,100110.94
2023-05-17T12:39:43.606Z,100123.56
2023-05-17T12:42:10.694Z,100120.91
2023-05-17T12:44:37.509Z,100108.00
2023-05-17T12:47:04.211Z,100104.78
2023-05-17T12:49:31.120Z,100107.47
2023-05-17T12:52:05.350Z,100097.28
2023-05-17T12:54:33.074Z,100110.13
2023-05-17T12:57:12.184Z,100108.22
2023-05-17T12:59:47.211Z,100106.78
2023-05-17T13:02:15.484Z,100104.34
2023-05-17T13:04:43.534Z,100090.25
2023-05-17T13:07:10.254Z,100091.88
2023-05-17T13:09:47.085Z,100095.63
2023-05-17T13:12:20.008Z,100098.22
2023-05-17T13:14:48.603Z,100083.38
2023-05-17T13:17:26.975Z,100082.75
2023-05-17T13:19:57.450Z,100088.00
2023-05-17T13:22:25.287Z,100075.94
2023-05-17T13:24:52.141Z,100071.56
2023-05-17T13:27:19.385Z,100075.13
2023-05-17T13:29:46.147Z,100069.16
2023-05-17T13:32:13.762Z,100074.22
2023-05-17T13:34:41.123Z,100084.69
2023-05-17T13:37:11.651Z,100069.97
2023-05-17T13:39:39.177Z,100061.34
2023-05-17T13:42:06.002Z,100066.53
2023-05-17T13:44:33.080Z,100056.22
2023-05-17T13:46:59.708Z,100061.44
2023-05-17T13:49:26.771Z,100060.44
2023-05-17T13:51:53.303Z,100058.66
2023-05-17T13:54:25.591Z,100051.88
2023-05-17T13:56:52.288Z,100039.75
2023-05-17T13:59:19.016Z,100044.91
2023-05-17T14:01:45.960Z,100044.00
2023-05-17T14:04:12.849Z,100047.47
2023-05-17T14:06:39.637Z,100044.94
2023-05-17T14:09:06.488Z,100038.06
2023-05-17T14:11:34.452Z,100041.56
2023-05-17T14:14:01.379Z,100051.94
2023-05-17T14:16:28.051Z,100037.19
2023-05-17T14:18:54.940Z,100040.72
2023-05-17T14:21:21.610Z,100022.56
2023-05-17T14:23:48.314Z,100029.47
2023-05-17T14:26:15.500Z,100025.09
2023-05-17T14:28:42.085Z,100029.47
2023-05-17T14:31:09.549Z,100019.06
2023-05-17T14:33:36.889Z,100016.44
2023-05-17T14:36:06.877Z,100015.59
2023-05-17T14:38:33.470Z,100006.09
2023-05-17T14:41:03.379Z,100010.41
2023-05-17T14:43:30.035Z,100018.22
2023-05-17T14:45:56.593Z,100013.88
2023-05-17T14:48:23.513Z,100019.88
2023-05-17T14:50:50.324Z,100013.00
2023-05-17T14:53:17.318Z,100010.41
2023-05-17T14:55:44.847Z,99997.34
2023-05-17T14:58:14.084Z,99992.97
2023-05-17T15:00:42.010Z,99997.34
2023-05-17T15:03:09.217Z,100006.94
2023-05-17T15:05:36.285Z,100013.84
2023-05-17T15:08:03.083Z,100014.72
2023-05-17T15:10:30.056Z,100025.97
2023-05-17T15:12:56.936Z,100012.16
2023-05-17T15:15:23.562Z,100012.16
2023-05-17T15:17:50.219Z,100013.03
2023-05-17T15:20:18.921Z,100010.44
2023-05-17T15:22:45.847Z,100013.88
2023-05-17T15:25:12.489Z,100019.09
2023-05-17T15:27:39.727Z,100031.19
2023-05-17T15:30:07.398Z,100028.56
2023-05-17T15:32:34.245Z,100028.56
2023-05-17T15:35:00.938Z,100027.66
2023-05-17T15:37:27.812Z,100019.03
2023-05-17T15:39:54.436Z,100016.38
2023-05-17T15:42:21.214Z,100010.31
2023-05-17T15:44:47.792Z,100007.75
2023-05-17T15:47:14.438Z,100011.28
2023-05-17T15:49:41.444Z,100011.28
2023-05-17T15:52:09.199Z,100030.31
2023-05-17T15:54:36.066Z,100030.31
2023-05-17T15:57:02.624Z,100019.94
2023-05-17T15:59:29.201Z,100035.47
2023-05-17T16:01:55.950Z,100025.97
2023-05-17T16:04:22.641Z,100024.19
2023-05-17T16:06:49.324Z,100031.19
2023-05-17T16:09:15.948Z,100031.19
2023-05-17T16:11:42.680Z,100028.59
2023-05-17T16:14:09.886Z,100023.41
2023-05-17T16:16:36.518Z,100030.34
2023-05-17T16:19:04.769Z,100021.66
2023-05-17T16:21:31.660Z,100015.53
2023-05-17T16:23:58.196Z,100012.81
2023-05-17T16:26:25.192Z,100015.19
2023-05-17T16:28:52.134Z,100021.56
2023-05-17T16:31:18.797Z,100017.31
2023-05-17T16:33:45.596Z,100025.97
2023-05-17T16:36:12.571Z,100030.31
2023-05-17T16:38:39.242Z,100033.78
2023-05-17T16:41:06.094Z,100027.66
2023-05-17T16:43:32.755Z,100034.56
2023-05-17T16:45:59.435Z,100047.59
2023-05-17T16:48:26.304Z,100036.38
2023-05-17T16:50:53.046Z,100038.09
2023-05-17T16:53:19.697Z,100032.03
2023-05-17T16:55:46.419Z,100026.78
2023-05-17T16:58:13.488Z,100024.16
2023-05-17T17:00:40.100Z,100035.38
2023-05-17T17:03:09.302Z,100038.91
2023-05-17T17:05:36.680Z,100034.56
2023-05-17T17:08:03.412Z,100036.28
2023-05-17T17:10:30.188Z,100031.09
2023-05-17T17:12:57.252Z,100028.44
2023-05-17T17:15:23.928Z,100023.31
2023-05-17T17:17:50.798Z,100029.38
2023-05-17T17:20:18.126Z,100033.72
2023-05-17T17:22:45.365Z,100038.88
2023-05-17T17:25:12.112Z,100038.03
2023-05-17T17:27:38.753Z,100039.75
2023-05-17T17:30:06.381Z,100047.56
2023-05-17T17:32:33.256Z,100039.69
2023-05-17T17:35:00.268Z,100031.03
2023-05-17T17:37:26.836Z,100046.66
2023-05-17T17:39:53.566Z,100044.97
2023-05-17T17:42:20.255Z,100050.94
2023-05-17T17:44:47.435Z,100047.44
2023-05-17T17:47:14.156Z,100043.16
2023-05-17T17:49:41.147Z,100048.31
2023-05-17T17:52:07.737Z,100066.41
2023-05-17T17:54:34.436Z,100049.09
2023-05-17T17:57:02.448Z,100053.44
2023-05-17T17:59:29.386Z,100066.38
2023-05-17T18:01:56.271Z,100066.41
2023-05-17T18:04:23.077Z,100065.44
2023-05-17T18:06:50.193Z,100063.72
2023-05-17T18:09:17.336Z,100062.88
2023-05-17T18:11:43.945Z,100064.69
2023-05-17T18:14:10.501Z,100071.66
2023-05-17T18:16:37.753Z,100075.13
2023-05-17T18:19:04.518Z,100060.47
2023-05-17T18:21:31.286Z,100069.13
2023-05-17T18:23:58.053Z,100081.94
2023-05-17T18:26:24.682Z,100083.56
2023-05-17T18:28:51.328Z,100079.16
2023-05-17T18:31:18.970Z,100087.81
2023-05-17T18:33:45.859Z,100085.94
2023-05-17T18:36:12.629Z,100092.81
2023-05-17T18:38:39.477Z,100097.97
2023-05-17T18:41:06.617Z,100093.72
2023-05-17T18:43:33.295Z,100095.44
2023-05-17T18:45:59.904Z,100098.00
2023-05-17T18:48:27.742Z,100097.97
2023-05-17T18:50:54.573Z,100099.56
2023-05-17T18:53:21.215Z,100092.66
2023-05-17T18:55:47.774Z,100097.06
2023-05-17T18:58:14.427Z,100100.38
2023-05-17T19:00:41.158Z,100104.69
2023-05-17T19:03:07.904Z,100099.44
2023-05-17T19:05:34.548Z,100104.47
2023-05-17T19:08:01.145Z,100103.53
2023-05-17T19:10:27.858Z,100111.19
2023-05-17T19:12:54.639Z,100105.88
2023-05-17T19:15:21.982Z,100119.66
2023-05-17T19:17:48.785Z,100117.22
2023-05-17T19:20:15.899Z,100116.97
2023-05-17T19:22:42.629Z,100124.81
2023-05-17T19:25:09.745Z,100121.22
2023-05-17T19:27:36.518Z,100123.00
2023-05-17T19:30:03.654Z,100125.59
2023-05-17T19:32:33.038Z,100126.19
2023-05-17T19:35:00.214Z,100132.28
2023-05-17T19:37:27.191Z,100139.03
2023-05-17T19:39:54.304Z,100144.97
2023-05-17T19:42:21.139Z,100143.94
2023-05-17T19:44:47.919Z,100142.25
2023-05-17T19:47:14.693Z,100144.03
2023-05-17T19:49:41.447Z,100148.31
2023-05-17T19:52:08.420Z,100152.59
2023-05-17T19:54:35.192Z,100161.13
2023-05-17T19:57:02.391Z,100161.81
2023-05-17T19:59:29.077Z,100169.63
2023-05-17T20:01:56.029Z,100170.22
2023-05-17T20:04:22.994Z,100164.31
2023-05-17T20:06:50.135Z,100177.91
2023-05-17T20:09:16.725Z,100184.44
2023-05-17T20:11:43.521Z,100181.75
2023-05-17T20:14:12.213Z,100177.41
2023-05-17T20:16:39.013Z,100181.53
2023-05-17T20:19:05.793Z,100179.25
2023-05-17T20:21:32.584Z,100192.19
2023-05-17T20:24:03.947Z,100182.44
2023-05-17T20:26:36.277Z,100187.47
2023-05-17T20:29:07.704Z,100178.03
2023-05-17T20:31:36.216Z,100183.97
2023-05-17T20:34:04.092Z,100192.34
2023-05-17T20:36:31.574Z,100192.34
2023-05-17T20:38:58.355Z,100180.84
2023-05-17T20:41:24.975Z,100195.56
2023-05-17T20:43:53.774Z,100192.19
2023-05-17T20:46:20.732Z,100196.28
2023-05-17T20:48:48.509Z,100193.94
2023-05-17T20:51:16.154Z,100191.94
2023-05-17T20:53:42.835Z,100196.53
2023-05-17T20:56:10.877Z,100192.13
2023-05-17T20:58:38.370Z,100197.00
2023-05-17T21:01:05.931Z,100196.00
2023-05-17T21:03:35.403Z,100196.63
2023-05-17T21:06:02.687Z,100204.31
2023-05-17T21:08:30.160Z,100201.38
2023-05-17T21:10:56.947Z,100202.16
2023-05-17T21:13:25.791Z,100195.66
2023-05-17T21:15:56.264Z,100200.00
2023-05-17T21:18:26.348Z,100193.53
2023-05-17T21:20:53.361Z,100197.69
2023-05-17T21:23:20.296Z,100200.97
2023-05-17T21:25:47.473Z,100195.75
2023-05-17T21:28:14.129Z,100199.91
2023-05-17T21:30:40.725Z,100196.25
2023-05-17T21:33:07.414Z,100197.00
2023-05-17T21:35:34.031Z,100204.94
2023-05-17T21:38:00.672Z,100209.22
2023-05-17T21:40:27.275Z,100202.44
2023-05-17T21:42:53.937Z,100204.97
2023-05-17T21:45:20.658Z,100203.84
2023-05-17T21:47:47.380Z,100198.75
2023-05-17T21:50:14.032Z,100208.34
2023-05-17T21:52:40.636Z,100202.44
2023-05-17T21:55:07.798Z,100203.41
2023-05-17T21:57:36.445Z,100210.84
2023-05-17T22:00:06.010Z,100200.25
2023-05-17T22:02:35.256Z,100197.59
2023-05-17T22:05:02.165Z,100201.44
2023-05-17T22:07:28.736Z,100200.72
2023-05-17T22:09:55.400Z,100202.84
2023-05-17T22:12:25.710Z,100200.56
2023-05-17T22:14:56.854Z,100204.06
2023-05-17T22:17:35.166Z,100201.41
2023-05-17T22:20:09.608Z,100207.09
2023-05-17T22:22:37.457Z,100204.53
2023-05-17T22:25:05.543Z,100204.34
2023-05-17T22:27:32.392Z,100216.09
2023-05-17T22:29:58.950Z,100209.06
2023-05-17T22:32:25.597Z,100217.47
2023-05-17T22:34:53.058Z,100215.31
2023-05-17T22:37:22.806Z,100215.25
2023-05-17T22:39:49.836Z,100215.53
2023-05-17T22:42:16.459Z,100224.22
2023-05-17T22:44:43.051Z,100229.97
2023-05-17T22:47:14.523Z,100213.09
2023-05-17T22:49:42.236Z,100215.13
2023-05-17T22:52:11.195Z,100212.72
2023-05-17T22:54:38.206Z,100209.13
2023-05-17T22:57:05.603Z,100219.22
2023-05-17T22:59:33.200Z,100211.22
2023-05-17T23:02:00.081Z,100215.53
2023-05-17T23:04:27.049Z,100211.22
2023-05-17T23:06:54.369Z,100212.13
2023-05-17T23:09:21.980Z,100214.03
2023-05-17T23:11:49.993Z,100205.41
2023-05-17T23:14:17.604Z,100205.03
2023-05-17T23:16:44.281Z,100210.13
2023-05-17T23:19:11.007Z,100205.91
2023-05-17T23:21:39.631Z,100208.81
2023-05-17T23:24:08.054Z,100205.47
2023-05-17T23:26:35.734Z,100204.19
2023-05-17T23:29:03.600Z,100213.63
2023-05-17T23:31:30.452Z,100205.41
2023-05-17T23:33:57.110Z,100204.31
2023-05-17T23:36:23.659Z,100202.81
2023-05-17T23:38:50.318Z,100206.50
2023-05-17T23:41:18.436Z,100195.97
2023-05-17T23:43:45.447Z,100196.59
2023-05-17T23:46:13.700Z,100200.97
2023-05-17T23:48:40.381Z,100198.63
2023-05-17T23:51:07.366Z,100196.88
2023-05-17T23:53:34.374Z,100201.63
2023-05-17T23:56:02.409Z,100189.91
2023-05-17T23:58:28.946Z,100190.44
